Lone Rock, WI

3:56 AM CST on February 25, 2018 (GMT -0600)
Gotham Suburbs | | Change Station

Elev 778 ft 43.23 °N, 90.27 °W | Updated 5 seconds ago

Overcast
Overcast
26.3 °F
Feels Like 16 °F
N
11.0
Wind Variable Wind from WSW
Gusts 25.0 mph

Today
High -- | Low -- °F
--% Chance of Precip.
Yesterday
High -- | Low -- °F
Precip. -- in
Pressure 29.61 in
Visibility 7.0 miles
Clouds Overcast 1900 ft
Windchill 16 °F
Dew Point 22 °F
Humidity 83%
Rainfall 0.00 in
Snow Depth Not available.
6:43 AM 5:44 PM
Waxing Gibbous, 73% visible
METAR KLNR 250856Z AUTO 27018G29KT 7SM OVC019 M03/M06 A2960 RMK AO2 PK WND 26033/0837 SLP026 60000 T10281056 53034
Pressure 29.61 in
Visibility 7.0 miles
Clouds Overcast 1900 ft
Windchill 16 °F
Dew Point 22 °F
Humidity 83%
Rainfall 0.00 in
Snow Depth Not available.
6:43 AM 5:44 PM
Waxing Gibbous, 73% visible
METAR KLNR 250856Z AUTO 27018G29KT 7SM OVC019 M03/M06 A2960 RMK AO2 PK WND 26033/0837 SLP026 60000 T10281056 53034

Get Severe Weather Alerts

Thanks for signing up!

Be on the lookout for a verification email in your inbox.

You'll start receiving the daily forecast at 6 AM.

×

10-Day Weather Forecast

Almanac

Astronomy

Feb. 25, 2018 Rise Set
Actual Time
Civil Twilight
Nautical Twilight
Astronomical Twilight
Moon
Length of Visible Light
Length of Day
Tomorrow will be .
, % of the Moon is Illuminated

Today's Extremes

State Highs State Lows

Community

WunderPhotos

Category 6

Welcome to Category 6. This is the collective home for Weather Underground's featured writeups by Dr. Jeff Masters (right), Bob Henson (left), Chris Burt, and other regular contributors.

Nearby

Air Quality

  Air Quality AQ Index Pollutant
Not available.

Snow Depth

Station Depth Elevation

Earthquake Activity

City Distance Mag. Time & Date
Minimum magnitude displayed is 2.5.

Coastal Water Temperatures

Place Temperature

Stations

Nearby Weather Stations

Station Location Temp. Windchill Dew Point Humidity Wind Precip. Elev Updated Type
                   

Watches & Warnings

There are currently no watches in effect.